Time;durP1;ratioP1;P1;durP2;ratioP2;P2;SDS_P1;SDS_P2;PMS_P1;PMS_P2;Temp;Humidity;BMP_temperature;BMP_pressure;BME280_temperature;BME280_humidity;BME280_pressure;Samples;Min_cycle;Max_cycle;Signal;HPM_P1;HPM_P2
2023/02/04 00:00:44;;;;;;;1.17;0.50;;;;;;;;;;5079418;28;20044;-73
2023/02/04 00:03:13;;;;;;;0.20;0.20;;;;;;;;;;5078416;28;20051;-67
2023/02/04 00:05:42;;;;;;;0.25;0.25;;;;;;;;;;5085470;28;20504;-69
2023/02/04 00:08:11;;;;;;;1.35;0.30;;;;;;;;;;5078492;28;20062;-70
2023/02/04 00:10:41;;;;;;;0.22;0.20;;;;;;;;;;5070534;28;20118;-70
2023/02/04 00:13:09;;;;;;;0.20;0.20;;;;;;;;;;5083389;28;20110;-70
2023/02/04 00:15:38;;;;;;;0.32;0.32;;;;;;;;;;5079145;28;20131;-70
2023/02/04 00:18:06;;;;;;;0.52;0.52;;;;;;;;;;5082570;28;20522;-69
2023/02/04 00:20:35;;;;;;;0.30;0.30;;;;;;;;;;5074290;28;20093;-70
2023/02/04 00:23:04;;;;;;;0.25;0.25;;;;;;;;;;5076091;28;20056;-69
2023/02/04 00:25:32;;;;;;;1.02;0.43;;;;;;;;;;5077863;28;20048;-69
2023/02/04 00:28:02;;;;;;;0.17;0.17;;;;;;;;;;5064970;28;20394;-70
2023/02/04 00:30:31;;;;;;;0.30;0.30;;;;;;;;;;5078959;28;20102;-69
2023/02/04 00:33:00;;;;;;;0.15;0.15;;;;;;;;;;5081845;28;20040;-74
2023/02/04 00:35:29;;;;;;;0.30;0.30;;;;;;;;;;5079453;28;20044;-70
2023/02/04 00:37:57;;;;;;;0.50;0.30;;;;;;;;;;5072435;28;20048;-69
2023/02/04 00:40:25;;;;;;;0.32;0.32;;;;;;;;;;5075776;28;20045;-70
2023/02/04 00:42:53;;;;;;;0.60;0.22;;;;;;;;;;5074594;28;20059;-70
2023/02/04 00:45:23;;;;;;;0.30;0.30;;;;;;;;;;5076068;28;20048;-70
2023/02/04 00:47:51;;;;;;;0.10;0.10;;;;;;;;;;5070733;28;20079;-70
2023/02/04 00:50:20;;;;;;;0.20;0.20;;;;;;;;;;5075014;28;20512;-70
2023/02/04 00:52:48;;;;;;;0.10;0.10;;;;;;;;;;5073915;28;20068;-70
2023/02/04 00:55:17;;;;;;;0.30;0.30;;;;;;;;;;5073982;28;20044;-69
2023/02/04 00:57:46;;;;;;;2.28;0.98;;;;;;;;;;5066975;28;20051;-70
2023/02/04 01:00:15;;;;;;;0.20;0.20;;;;;;;;;;5066381;28;20051;-72
2023/02/04 01:02:45;;;;;;;1.48;0.50;;;;;;;;;;5084134;28;20110;-70
2023/02/04 01:05:14;;;;;;;0.22;0.22;;;;;;;;;;5080060;28;20570;-70
2023/02/04 01:07:43;;;;;;;0.10;0.10;;;;;;;;;;5073902;28;20097;-69
2023/02/04 01:10:11;;;;;;;0.25;0.25;;;;;;;;;;5076722;28;20480;-70
2023/02/04 01:12:40;;;;;;;0.20;0.20;;;;;;;;;;5080026;28;20107;-70
2023/02/04 01:15:09;;;;;;;0.10;0.10;;;;;;;;;;5077275;28;20040;-70
2023/02/04 01:17:37;;;;;;;0.20;0.20;;;;;;;;;;5075042;28;20477;-70
2023/02/04 01:20:08;;;;;;;1.58;0.45;;;;;;;;;;5081878;28;20154;-70
2023/02/04 01:22:37;;;;;;;0.30;0.30;;;;;;;;;;5081029;28;20044;-70
2023/02/04 01:25:05;;;;;;;0.20;0.20;;;;;;;;;;5070722;28;20052;-70
2023/02/04 01:27:34;;;;;;;0.30;0.30;;;;;;;;;;5065194;28;20045;-70
2023/02/04 01:30:03;;;;;;;0.10;0.10;;;;;;;;;;5081433;28;20076;-70
2023/02/04 01:32:32;;;;;;;0.20;0.20;;;;;;;;;;5085381;28;20059;-71
2023/02/04 01:35:00;;;;;;;0.77;0.70;;;;;;;;;;5078660;28;20044;-70
2023/02/04 01:37:30;;;;;;;0.30;0.30;;;;;;;;;;5067380;28;20505;-70
2023/02/04 01:39:59;;;;;;;0.63;0.63;;;;;;;;;;5084111;28;20051;-69
2023/02/04 01:42:27;;;;;;;1.48;0.30;;;;;;;;;;5071727;28;21536;-69
2023/02/04 01:44:55;;;;;;;0.20;0.20;;;;;;;;;;5066376;28;20044;-70
2023/02/04 01:47:24;;;;;;;0.90;0.20;;;;;;;;;;5073953;28;20044;-69
2023/02/04 01:49:54;;;;;;;0.32;0.32;;;;;;;;;;5078831;28;20044;-69
2023/02/04 01:52:24;;;;;;;0.80;0.43;;;;;;;;;;5081319;28;20143;-69
2023/02/04 01:54:54;;;;;;;0.30;0.30;;;;;;;;;;5073626;28;20357;-69
2023/02/04 01:57:22;;;;;;;0.63;0.60;;;;;;;;;;5070946;28;20055;-69
2023/02/04 01:59:53;;;;;;;0.32;0.32;;;;;;;;;;5085258;28;20083;-69
2023/02/04 02:02:41;;;;;;;0.20;0.20;;;;;;;;;;5071685;28;20394;-69
2023/02/04 02:05:10;;;;;;;1.83;1.73;;;;;;;;;;5076442;28;20390;-69
2023/02/04 02:07:38;;;;;;;0.30;0.30;;;;;;;;;;5067717;28;20488;-70
2023/02/04 02:10:10;;;;;;;0.50;0.50;;;;;;;;;;5073571;28;20055;-69
2023/02/04 02:12:38;;;;;;;0.40;0.40;;;;;;;;;;5070707;28;20409;-69
2023/02/04 02:15:08;;;;;;;0.15;0.15;;;;;;;;;;5073236;28;20119;-69
2023/02/04 02:17:36;;;;;;;0.30;0.30;;;;;;;;;;5077121;28;20054;-69
2023/02/04 02:20:07;;;;;;;0.40;0.40;;;;;;;;;;5075038;28;20105;-69
2023/02/04 02:22:38;;;;;;;1.10;0.20;;;;;;;;;;5075262;28;20052;-70
2023/02/04 02:25:11;;;;;;;0.30;0.30;;;;;;;;;;5073577;28;20049;-69
2023/02/04 02:27:40;;;;;;;0.22;0.22;;;;;;;;;;5064777;28;20067;-69
2023/02/04 02:30:09;;;;;;;0.22;0.22;;;;;;;;;;5076107;28;20052;-67
2023/02/04 02:32:38;;;;;;;0.30;0.30;;;;;;;;;;5068336;28;20048;-68
2023/02/04 02:35:07;;;;;;;0.13;0.13;;;;;;;;;;5076898;28;20044;-68
2023/02/04 02:37:36;;;;;;;6.50;0.52;;;;;;;;;;5080428;28;20122;-68
2023/02/04 02:40:05;;;;;;;5.25;0.50;;;;;;;;;;5076227;28;20052;-68
2023/02/04 02:42:35;;;;;;;0.75;0.47;;;;;;;;;;5066634;28;20049;-68
2023/02/04 02:45:07;;;;;;;0.20;0.20;;;;;;;;;;5079270;28;20059;-68
2023/02/04 02:47:35;;;;;;;0.20;0.20;;;;;;;;;;5071781;28;20488;-68
2023/02/04 02:50:04;;;;;;;3.22;0.82;;;;;;;;;;5067294;28;20113;-68
2023/02/04 02:52:32;;;;;;;0.40;0.40;;;;;;;;;;5071079;28;20052;-69
2023/02/04 02:55:01;;;;;;;0.40;0.40;;;;;;;;;;5074751;28;20044;-68
2023/02/04 02:57:29;;;;;;;0.13;0.13;;;;;;;;;;5069265;28;20052;-68
2023/02/04 02:59:59;;;;;;;0.68;0.68;;;;;;;;;;5076426;28;20405;-68
2023/02/04 03:02:27;;;;;;;1.67;0.50;;;;;;;;;;5075443;28;20046;-68
2023/02/04 03:04:59;;;;;;;6.65;1.23;;;;;;;;;;5083601;28;20517;-68
2023/02/04 03:07:28;;;;;;;0.30;0.17;;;;;;;;;;5076849;28;20051;-68
2023/02/04 03:09:57;;;;;;;1.00;0.40;;;;;;;;;;5078147;28;20076;-70
2023/02/04 03:12:25;;;;;;;2.92;0.73;;;;;;;;;;5069132;28;20044;-68
2023/02/04 03:14:54;;;;;;;1.38;0.75;;;;;;;;;;5077815;28;20071;-68
2023/02/04 03:17:24;;;;;;;5.35;0.40;;;;;;;;;;5067830;28;20366;-67
2023/02/04 03:19:53;;;;;;;0.35;0.20;;;;;;;;;;5078585;28;20052;-68
2023/02/04 03:22:21;;;;;;;0.20;0.20;;;;;;;;;;5074915;28;20125;-68
2023/02/04 03:24:49;;;;;;;1.08;0.80;;;;;;;;;;5083969;28;20048;-68
2023/02/04 03:27:18;;;;;;;1.42;0.22;;;;;;;;;;5073586;28;20040;-68
2023/02/04 03:29:46;;;;;;;0.22;0.22;;;;;;;;;;5071126;28;20047;-68
2023/02/04 03:32:14;;;;;;;0.50;0.50;;;;;;;;;;5075953;28;20595;-68
2023/02/04 03:34:44;;;;;;;1.38;0.38;;;;;;;;;;5076774;28;20034;-68
2023/02/04 03:37:13;;;;;;;0.43;0.43;;;;;;;;;;5077830;28;20051;-69
2023/02/04 03:39:41;;;;;;;0.82;0.57;;;;;;;;;;5085326;28;20044;-69
2023/02/04 03:42:10;;;;;;;2.47;0.60;;;;;;;;;;5066626;28;20071;-68
2023/02/04 03:44:38;;;;;;;7.75;0.30;;;;;;;;;;5078951;28;20502;-68
2023/02/04 03:47:06;;;;;;;1.48;1.02;;;;;;;;;;5068073;28;20131;-67
2023/02/04 03:49:35;;;;;;;1.55;0.85;;;;;;;;;;5078646;28;20047;-68
2023/02/04 03:52:05;;;;;;;0.43;0.40;;;;;;;;;;5081497;28;20048;-68
2023/02/04 03:54:33;;;;;;;0.80;0.35;;;;;;;;;;5079893;28;20056;-69
2023/02/04 03:57:02;;;;;;;0.55;0.55;;;;;;;;;;5073561;28;20045;-68
2023/02/04 03:59:30;;;;;;;0.77;0.77;;;;;;;;;;5071926;28;20117;-68
2023/02/04 04:01:59;;;;;;;0.52;0.47;;;;;;;;;;5070176;28;20044;-69
2023/02/04 04:04:27;;;;;;;0.30;0.30;;;;;;;;;;5076107;28;20044;-68
2023/02/04 04:06:56;;;;;;;1.92;0.80;;;;;;;;;;5081692;28;20050;-67
2023/02/04 04:09:26;;;;;;;1.27;0.70;;;;;;;;;;5079671;28;20044;-68
2023/02/04 04:11:54;;;;;;;0.20;0.20;;;;;;;;;;5076941;28;20049;-67
2023/02/04 04:14:23;;;;;;;8.48;0.90;;;;;;;;;;5074367;28;20072;-67
2023/02/04 04:16:51;;;;;;;0.20;0.20;;;;;;;;;;5075638;28;20044;-67
2023/02/04 04:19:20;;;;;;;0.30;0.30;;;;;;;;;;5077113;28;20048;-67
2023/02/04 04:21:48;;;;;;;1.35;0.63;;;;;;;;;;5071340;28;20098;-67
2023/02/04 04:24:17;;;;;;;1.15;1.15;;;;;;;;;;5074566;28;20052;-67
2023/02/04 04:26:46;;;;;;;4.38;1.00;;;;;;;;;;5072142;28;20492;-67
2023/02/04 04:29:15;;;;;;;0.68;0.68;;;;;;;;;;5067300;28;20048;-67
2023/02/04 04:31:43;;;;;;;0.90;0.80;;;;;;;;;;5072101;28;20040;-67
2023/02/04 04:34:12;;;;;;;0.98;0.60;;;;;;;;;;5078647;28;21014;-67
2023/02/04 04:36:41;;;;;;;0.35;0.35;;;;;;;;;;5071358;28;20054;-67
2023/02/04 04:39:09;;;;;;;5.25;0.73;;;;;;;;;;5077047;28;20060;-67
2023/02/04 04:41:38;;;;;;;14.02;0.63;;;;;;;;;;5072819;28;20115;-67
2023/02/04 04:44:08;;;;;;;1.10;1.08;;;;;;;;;;5074046;28;20056;-67
2023/02/04 04:46:36;;;;;;;0.20;0.20;;;;;;;;;;5070627;28;20459;-67
2023/02/04 04:49:05;;;;;;;0.20;0.20;;;;;;;;;;5075745;28;20047;-68
2023/02/04 04:51:34;;;;;;;0.52;0.52;;;;;;;;;;5083545;28;20536;-67
2023/02/04 04:54:02;;;;;;;0.45;0.45;;;;;;;;;;5077931;28;20040;-68
2023/02/04 04:56:30;;;;;;;0.47;0.47;;;;;;;;;;5076568;28;20048;-68
2023/02/04 04:58:58;;;;;;;0.43;0.43;;;;;;;;;;5083459;28;20416;-69
2023/02/04 05:01:28;;;;;;;0.10;0.10;;;;;;;;;;5081414;28;20113;-68
2023/02/04 05:03:57;;;;;;;1.25;0.52;;;;;;;;;;5071383;28;20054;-68
2023/02/04 05:06:26;;;;;;;1.42;0.70;;;;;;;;;;5074115;28;20051;-68
2023/02/04 05:08:54;;;;;;;0.75;0.60;;;;;;;;;;5069444;28;20063;-68
2023/02/04 05:11:23;;;;;;;3.50;1.05;;;;;;;;;;5075111;28;20178;-68
2023/02/04 05:13:51;;;;;;;10.45;0.50;;;;;;;;;;5070086;28;20053;-69
2023/02/04 05:16:20;;;;;;;0.65;0.52;;;;;;;;;;5073620;28;20517;-72
2023/02/04 05:18:50;;;;;;;0.40;0.40;;;;;;;;;;5070948;28;20091;-68
2023/02/04 05:21:18;;;;;;;0.28;0.28;;;;;;;;;;5079527;28;20059;-70
2023/02/04 05:23:46;;;;;;;0.32;0.32;;;;;;;;;;5083771;28;20044;-68
2023/02/04 05:26:15;;;;;;;0.15;0.13;;;;;;;;;;5069677;28;20044;-68
2023/02/04 05:28:59;;;;;;;0.57;0.22;;;;;;;;;;5070478;28;20044;-68
2023/02/04 05:31:27;;;;;;;2.15;1.45;;;;;;;;;;5079138;28;20048;-68
2023/02/04 05:33:57;;;;;;;0.20;0.20;;;;;;;;;;5073863;28;20053;-68
2023/02/04 05:36:25;;;;;;;2.08;0.47;;;;;;;;;;5085455;28;20052;-68
2023/02/04 05:38:54;;;;;;;0.20;0.20;;;;;;;;;;5073685;28;20052;-68
2023/02/04 05:41:22;;;;;;;0.52;0.38;;;;;;;;;;5068108;28;20131;-67
2023/02/04 05:43:51;;;;;;;1.95;1.17;;;;;;;;;;5069996;28;20044;-68
2023/02/04 05:46:19;;;;;;;0.30;0.30;;;;;;;;;;5073131;28;20048;-67
2023/02/04 05:48:48;;;;;;;0.20;0.20;;;;;;;;;;5067917;28;20048;-70
2023/02/04 05:51:17;;;;;;;0.22;0.22;;;;;;;;;;5070441;28;20049;-71
2023/02/04 05:53:45;;;;;;;0.43;0.43;;;;;;;;;;5073171;28;20055;-67
2023/02/04 05:56:14;;;;;;;0.82;0.43;;;;;;;;;;5080393;28;20045;-68
2023/02/04 05:58:42;;;;;;;0.20;0.20;;;;;;;;;;5069039;28;20046;-68
2023/02/04 06:01:11;;;;;;;0.35;0.35;;;;;;;;;;5069406;28;20056;-68
2023/02/04 06:03:39;;;;;;;2.83;0.55;;;;;;;;;;5071852;28;20044;-68
2023/02/04 06:06:08;;;;;;;0.63;0.20;;;;;;;;;;5081112;28;20055;-68
2023/02/04 06:08:37;;;;;;;1.27;0.40;;;;;;;;;;5079773;28;20049;-67
2023/02/04 06:11:06;;;;;;;4.57;0.52;;;;;;;;;;5082054;28;20050;-68
2023/02/04 06:13:35;;;;;;;0.60;0.60;;;;;;;;;;5064508;28;20437;-68
2023/02/04 06:16:03;;;;;;;5.15;0.55;;;;;;;;;;5070343;28;20481;-68
2023/02/04 06:18:32;;;;;;;0.63;0.63;;;;;;;;;;5070900;28;20044;-68
2023/02/04 06:21:03;;;;;;;0.30;0.30;;;;;;;;;;5065950;28;20040;-67
2023/02/04 06:23:33;;;;;;;2.05;0.60;;;;;;;;;;5068785;28;20049;-68
2023/02/04 06:26:03;;;;;;;1.00;0.73;;;;;;;;;;5070958;28;20044;-68
2023/02/04 06:28:31;;;;;;;4.45;0.65;;;;;;;;;;5064618;28;20102;-68
2023/02/04 06:30:59;;;;;;;3.65;0.60;;;;;;;;;;5077102;28;20135;-68
2023/02/04 06:33:28;;;;;;;4.85;0.45;;;;;;;;;;5071160;28;20072;-68
2023/02/04 06:35:56;;;;;;;2.97;0.38;;;;;;;;;;5079435;28;20076;-68
2023/02/04 06:38:25;;;;;;;2.55;0.63;;;;;;;;;;5081229;28;20511;-68
2023/02/04 06:40:54;;;;;;;4.28;0.65;;;;;;;;;;5070536;28;20045;-68
2023/02/04 06:43:24;;;;;;;1.02;0.63;;;;;;;;;;5065858;28;20512;-69
2023/02/04 06:45:53;;;;;;;1.50;1.00;;;;;;;;;;5063450;28;20072;-67
2023/02/04 06:48:21;;;;;;;0.40;0.40;;;;;;;;;;5068251;28;20051;-68
2023/02/04 06:50:50;;;;;;;0.50;0.50;;;;;;;;;;5081637;28;20052;-68
2023/02/04 06:53:18;;;;;;;0.38;0.32;;;;;;;;;;5066888;28;20538;-68
2023/02/04 06:55:47;;;;;;;1.45;1.10;;;;;;;;;;5058135;28;20099;-68
2023/02/04 06:58:15;;;;;;;4.22;0.40;;;;;;;;;;5068292;28;20080;-68
2023/02/04 07:00:45;;;;;;;0.20;0.20;;;;;;;;;;5072718;28;20498;-67
2023/02/04 07:03:14;;;;;;;1.58;0.93;;;;;;;;;;5069193;28;20399;-69
2023/02/04 07:05:43;;;;;;;0.38;0.38;;;;;;;;;;5074786;28;20040;-68
2023/02/04 07:08:11;;;;;;;0.95;0.50;;;;;;;;;;5086163;28;20042;-68
2023/02/04 07:10:40;;;;;;;1.23;0.70;;;;;;;;;;5076728;28;20049;-68
2023/02/04 07:13:08;;;;;;;0.30;0.30;;;;;;;;;;5067028;28;20048;-68
2023/02/04 07:15:37;;;;;;;0.55;0.55;;;;;;;;;;5072595;28;20063;-68
2023/02/04 07:18:07;;;;;;;0.73;0.52;;;;;;;;;;5075374;28;20473;-68
2023/02/04 07:20:35;;;;;;;0.20;0.20;;;;;;;;;;5070940;28;20083;-67
2023/02/04 07:23:03;;;;;;;0.50;0.43;;;;;;;;;;5069363;28;20045;-68
2023/02/04 07:25:32;;;;;;;0.55;0.50;;;;;;;;;;5067606;28;20438;-68
2023/02/04 07:28:02;;;;;;;5.18;0.93;;;;;;;;;;5065824;28;20061;-68
2023/02/04 07:30:31;;;;;;;0.45;0.40;;;;;;;;;;5069638;28;20087;-67
2023/02/04 07:33:00;;;;;;;5.45;0.60;;;;;;;;;;5070964;28;20048;-68
2023/02/04 07:35:30;;;;;;;0.50;0.50;;;;;;;;;;5070085;28;20052;-69
2023/02/04 07:37:58;;;;;;;0.40;0.40;;;;;;;;;;5076949;28;20050;-68
2023/02/04 07:40:27;;;;;;;5.97;0.50;;;;;;;;;;5073217;28;20110;-67
2023/02/04 07:42:55;;;;;;;2.72;1.15;;;;;;;;;;5065992;28;20053;-67
2023/02/04 07:45:24;;;;;;;0.82;0.70;;;;;;;;;;5070045;28;20064;-67
2023/02/04 07:47:53;;;;;;;0.60;0.60;;;;;;;;;;5071646;28;20075;-68
2023/02/04 07:50:21;;;;;;;0.63;0.52;;;;;;;;;;5070643;28;20063;-67
2023/02/04 07:52:51;;;;;;;14.60;0.88;;;;;;;;;;5067807;28;20141;-68
2023/02/04 07:55:20;;;;;;;0.32;0.28;;;;;;;;;;5072079;28;20049;-69
2023/02/04 07:57:48;;;;;;;0.30;0.30;;;;;;;;;;5070266;28;20071;-68
2023/02/04 08:00:17;;;;;;;0.82;0.40;;;;;;;;;;5056468;28;20044;-69
2023/02/04 08:02:45;;;;;;;1.08;0.77;;;;;;;;;;5068424;28;20093;-67
2023/02/04 08:05:14;;;;;;;0.30;0.30;;;;;;;;;;5071869;28;20064;-69
2023/02/04 08:07:43;;;;;;;5.82;0.68;;;;;;;;;;5069406;28;20053;-68
2023/02/04 08:10:13;;;;;;;0.25;0.25;;;;;;;;;;5063811;28;20098;-68
2023/02/04 08:12:41;;;;;;;0.73;0.73;;;;;;;;;;5069343;28;20051;-68
2023/02/04 08:15:10;;;;;;;7.75;0.57;;;;;;;;;;5072447;28;20049;-69
2023/02/04 08:17:39;;;;;;;2.20;0.77;;;;;;;;;;5069409;28;20052;-68
2023/02/04 08:20:08;;;;;;;0.73;0.60;;;;;;;;;;5068545;28;20044;-69
2023/02/04 08:22:37;;;;;;;1.33;1.15;;;;;;;;;;5069833;28;20400;-71
2023/02/04 08:25:06;;;;;;;0.25;0.25;;;;;;;;;;5067895;28;20075;-69
2023/02/04 08:27:36;;;;;;;0.50;0.50;;;;;;;;;;5062976;28;20052;-68
2023/02/04 08:30:05;;;;;;;0.40;0.40;;;;;;;;;;5064720;28;20052;-68
2023/02/04 08:32:34;;;;;;;0.95;0.70;;;;;;;;;;5068724;28;20635;-69
2023/02/04 08:35:02;;;;;;;3.08;0.85;;;;;;;;;;5069205;28;20055;-68
2023/02/04 08:37:33;;;;;;;0.57;0.25;;;;;;;;;;5068289;28;20153;-69
2023/02/04 08:40:02;;;;;;;1.08;0.70;;;;;;;;;;5072377;28;20083;-69
2023/02/04 08:42:30;;;;;;;0.95;0.50;;;;;;;;;;5068852;28;20048;-69
2023/02/04 08:45:00;;;;;;;0.57;0.57;;;;;;;;;;5064427;28;20076;-69
2023/02/04 08:47:29;;;;;;;0.38;0.30;;;;;;;;;;5062167;28;20075;-68
2023/02/04 08:49:57;;;;;;;2.40;0.65;;;;;;;;;;5075336;28;20127;-69
2023/02/04 08:52:26;;;;;;;0.85;0.52;;;;;;;;;;5066494;28;20497;-72
2023/02/04 08:54:54;;;;;;;0.50;0.30;;;;;;;;;;5070979;28;20060;-69
2023/02/04 08:57:23;;;;;;;0.57;0.45;;;;;;;;;;5071718;28;20053;-69
2023/02/04 08:59:52;;;;;;;0.60;0.60;;;;;;;;;;5069741;28;20067;-69
2023/02/04 09:02:22;;;;;;;0.43;0.25;;;;;;;;;;5074514;28;20051;-68
2023/02/04 09:04:51;;;;;;;0.60;0.45;;;;;;;;;;5069464;28;20492;-69
2023/02/04 09:07:20;;;;;;;0.15;0.15;;;;;;;;;;5067515;28;20166;-68
2023/02/04 09:09:49;;;;;;;0.32;0.32;;;;;;;;;;5070897;28;20053;-67
2023/02/04 09:12:17;;;;;;;0.20;0.20;;;;;;;;;;5068561;28;20056;-70
2023/02/04 09:14:46;;;;;;;0.80;0.63;;;;;;;;;;5071687;28;20044;-66
2023/02/04 09:17:14;;;;;;;0.32;0.32;;;;;;;;;;5072822;28;20045;-67
2023/02/04 09:19:44;;;;;;;0.65;0.28;;;;;;;;;;5069369;28;20650;-67
2023/02/04 09:22:14;;;;;;;0.30;0.22;;;;;;;;;;5065119;28;20127;-68
2023/02/04 09:24:42;;;;;;;3.65;0.70;;;;;;;;;;5068504;28;20040;-67
2023/02/04 09:27:10;;;;;;;0.65;0.65;;;;;;;;;;5067185;28;20059;-69
2023/02/04 09:29:39;;;;;;;0.47;0.45;;;;;;;;;;5072748;28;20056;-68
2023/02/04 09:32:08;;;;;;;0.50;0.50;;;;;;;;;;5069674;28;20048;-69
2023/02/04 09:34:36;;;;;;;0.80;0.60;;;;;;;;;;5076034;28;20456;-69
2023/02/04 09:37:06;;;;;;;0.30;0.30;;;;;;;;;;5074944;28;20401;-67
2023/02/04 09:39:35;;;;;;;0.52;0.52;;;;;;;;;;5070104;28;20059;-67
2023/02/04 09:42:04;;;;;;;0.30;0.30;;;;;;;;;;5075798;28;20052;-68
2023/02/04 09:44:32;;;;;;;0.22;0.22;;;;;;;;;;5072675;28;20052;-67
2023/02/04 09:47:01;;;;;;;0.10;0.10;;;;;;;;;;5060155;28;20083;-67
2023/02/04 09:49:30;;;;;;;0.30;0.30;;;;;;;;;;5066942;28;20452;-67
2023/02/04 09:51:58;;;;;;;5.78;0.40;;;;;;;;;;5062896;28;20061;-68
2023/02/04 09:54:28;;;;;;;0.20;0.20;;;;;;;;;;5050496;28;20045;-68
2023/02/04 09:56:58;;;;;;;0.90;0.30;;;;;;;;;;5045300;28;20127;-67
2023/02/04 09:59:28;;;;;;;0.35;0.35;;;;;;;;;;5045008;28;20489;-67
2023/02/04 10:01:59;;;;;;;1.65;1.23;;;;;;;;;;5042948;28;20110;-69
2023/02/04 10:04:28;;;;;;;1.75;0.47;;;;;;;;;;5042034;28;20438;-69
2023/02/04 10:06:58;;;;;;;0.10;0.10;;;;;;;;;;5041072;28;20056;-69
2023/02/04 10:09:28;;;;;;;0.28;0.28;;;;;;;;;;5042963;28;20054;-68
2023/02/04 10:11:56;;;;;;;0.10;0.10;;;;;;;;;;5029883;28;20136;-68
2023/02/04 10:14:25;;;;;;;0.15;0.15;;;;;;;;;;5043956;28;20106;-67
2023/02/04 10:16:55;;;;;;;0.30;0.30;;;;;;;;;;5037259;28;20087;-69
2023/02/04 10:19:26;;;;;;;0.75;0.45;;;;;;;;;;5045655;28;20544;-67
2023/02/04 10:35:44;;;;;;;0.10;0.10;;;;;;;;;;5050247;28;20036;-68
2023/02/04 10:41:37;;;;;;;0.20;0.20;;;;;;;;;;5040118;28;20055;-67
2023/02/04 10:44:07;;;;;;;0.47;0.47;;;;;;;;;;5040530;28;20485;-67
2023/02/04 10:46:35;;;;;;;0.10;0.10;;;;;;;;;;5041361;28;20051;-67
2023/02/04 10:52:34;;;;;;;1.17;1.17;;;;;;;;;;5050568;28;20382;-69
2023/02/04 11:02:25;;;;;;;0.20;0.10;;;;;;;;;;5075778;28;20410;-69
2023/02/04 11:04:54;;;;;;;0.73;0.17;;;;;;;;;;5035091;28;20115;-69
2023/02/04 11:14:34;;;;;;;1.02;1.02;;;;;;;;;;5072930;28;20412;-72
2023/02/04 11:17:33;;;;;;;0.13;0.13;;;;;;;;;;5074801;28;20072;-70
2023/02/04 11:23:32;;;;;;;0.10;0.10;;;;;;;;;;5065905;28;20620;-71
2023/02/04 11:26:17;;;;;;;1.00;0.38;;;;;;;;;;5074762;28;20477;-69
2023/02/04 11:29:01;;;;;;;;;;;;;;;;;;5067430;28;20079;-69
2023/02/04 11:31:42;;;;;;;0.55;0.50;;;;;;;;;;5066779;28;20356;-69
2023/02/04 11:34:27;;;;;;;0.10;0.10;;;;;;;;;;5070638;28;20056;-69
2023/02/04 11:36:58;;;;;;;0.20;0.20;;;;;;;;;;5061977;28;20052;-69
2023/02/04 11:39:29;;;;;;;0.40;0.40;;;;;;;;;;5057847;28;20138;-70
2023/02/04 11:41:59;;;;;;;0.17;0.17;;;;;;;;;;5060510;28;20037;-70
2023/02/04 11:44:28;;;;;;;0.20;0.20;;;;;;;;;;5070235;28;20394;-70
2023/02/04 11:46:59;;;;;;;0.30;0.30;;;;;;;;;;5068239;28;20354;-70
2023/02/04 11:49:28;;;;;;;0.20;0.20;;;;;;;;;;5073478;28;20047;-70
2023/02/04 11:52:07;;;;;;;0.20;0.20;;;;;;;;;;5076429;28;20127;-70
2023/02/04 11:54:36;;;;;;;0.30;0.22;;;;;;;;;;5075728;28;20127;-70
2023/02/04 11:57:04;;;;;;;0.50;0.50;;;;;;;;;;5071369;28;20094;-70
2023/02/04 11:59:33;;;;;;;2.92;0.57;;;;;;;;;;5072602;28;20047;-70
2023/02/04 12:02:08;;;;;;;0.47;0.47;;;;;;;;;;5073118;28;20048;-70
2023/02/04 12:04:37;;;;;;;0.20;0.20;;;;;;;;;;5067589;28;20151;-70
2023/02/04 12:07:05;;;;;;;0.93;0.45;;;;;;;;;;5074476;28;20043;-70
2023/02/04 12:09:34;;;;;;;0.20;0.20;;;;;;;;;;5059076;28;20049;-70
2023/02/04 12:12:03;;;;;;;0.40;0.40;;;;;;;;;;5077704;28;20538;-70
2023/02/04 12:14:33;;;;;;;0.68;0.45;;;;;;;;;;5072660;28;20044;-70
2023/02/04 12:17:01;;;;;;;1.35;0.40;;;;;;;;;;5072549;28;20053;-69
2023/02/04 12:19:31;;;;;;;0.28;0.28;;;;;;;;;;5072911;28;20059;-69
2023/02/04 12:22:00;;;;;;;0.88;0.57;;;;;;;;;;5065115;28;20485;-70
2023/02/04 12:38:11;;;;;;;0.65;0.65;;;;;;;;;;5071166;28;20056;-69
2023/02/04 12:40:54;;;;;;;0.25;0.25;;;;;;;;;;5011357;28;20252;-71
2023/02/04 12:46:54;;;;;;;0.75;0.60;;;;;;;;;;5014993;28;20081;-71
2023/02/04 12:49:23;;;;;;;0.45;0.45;;;;;;;;;;5010151;28;20084;-72
2023/02/04 13:02:20;;;;;;;0.20;0.20;;;;;;;;;;4999306;28;20067;-71
2023/02/04 13:11:50;;;;;;;0.40;0.40;;;;;;;;;;4984348;28;20624;-70
2023/02/04 13:14:43;;;;;;;0.20;0.20;;;;;;;;;;4990356;28;20146;-68
2023/02/04 14:13:04;;;;;;;0.30;0.30;;;;;;;;;;5062261;28;20059;-70
2023/02/04 14:15:36;;;;;;;0.35;0.35;;;;;;;;;;5067610;28;20067;-70
2023/02/04 14:18:05;;;;;;;0.50;0.35;;;;;;;;;;5058251;28;20472;-70
2023/02/04 14:20:34;;;;;;;0.20;0.20;;;;;;;;;;5065169;28;20044;-71
2023/02/04 14:26:05;;;;;;;0.30;0.25;;;;;;;;;;5067689;28;20101;-70
2023/02/04 14:46:09;;;;;;;0.30;0.30;;;;;;;;;;5066194;28;20044;-69
2023/02/04 15:10:06;;;;;;;0.75;0.55;;;;;;;;;;5023711;28;20121;-71
2023/02/04 15:12:35;;;;;;;0.10;0.10;;;;;;;;;;5026546;28;20052;-71
2023/02/04 15:15:04;;;;;;;0.40;0.40;;;;;;;;;;5063137;28;20447;-71
2023/02/04 15:17:36;;;;;;;0.40;0.40;;;;;;;;;;5071534;28;20060;-70
2023/02/04 15:20:07;;;;;;;1.35;0.43;;;;;;;;;;5075831;28;20059;-70
2023/02/04 15:47:15;;;;;;;0.40;0.40;;;;;;;;;;5071696;28;20106;-71
2023/02/04 15:50:18;;;;;;;0.25;0.20;;;;;;;;;;5080901;28;20075;-71
2023/02/04 16:03:55;;;;;;;0.10;0.10;;;;;;;;;;5070405;28;20435;-71
2023/02/04 16:09:53;;;;;;;0.38;0.38;;;;;;;;;;5038448;28;20048;-72
2023/02/04 16:15:54;;;;;;;0.45;0.40;;;;;;;;;;5065420;28;20510;-70
2023/02/04 16:18:24;;;;;;;0.28;0.28;;;;;;;;;;5062786;28;20055;-72
2023/02/04 16:20:53;;;;;;;0.85;0.60;;;;;;;;;;5070071;28;20233;-71
2023/02/04 16:23:21;;;;;;;0.55;0.50;;;;;;;;;;5072437;28;20497;-71
2023/02/04 16:25:52;;;;;;;0.40;0.40;;;;;;;;;;5079889;28;20044;-71
2023/02/04 16:28:20;;;;;;;0.60;0.60;;;;;;;;;;5059287;28;20071;-71
2023/02/04 16:30:49;;;;;;;0.68;0.68;;;;;;;;;;5070584;28;20052;-70
2023/02/04 16:33:18;;;;;;;0.40;0.40;;;;;;;;;;5063042;28;20080;-70
2023/02/04 16:36:00;;;;;;;1.13;0.50;;;;;;;;;;5075043;28;20066;-70
2023/02/04 16:38:29;;;;;;;0.50;0.50;;;;;;;;;;5062117;28;20596;-70
2023/02/04 16:40:59;;;;;;;0.55;0.55;;;;;;;;;;5053609;28;20056;-70
2023/02/04 16:43:28;;;;;;;0.52;0.50;;;;;;;;;;5058643;28;20053;-71
2023/02/04 16:45:57;;;;;;;0.38;0.38;;;;;;;;;;5065780;28;20044;-71
2023/02/04 16:48:27;;;;;;;2.15;0.70;;;;;;;;;;5064045;28;20077;-71
2023/02/04 16:50:56;;;;;;;0.38;0.38;;;;;;;;;;5078133;28;20048;-70
2023/02/04 16:53:24;;;;;;;1.35;0.82;;;;;;;;;;5062346;28;20052;-71
2023/02/04 16:55:55;;;;;;;0.93;0.40;;;;;;;;;;5074543;28;20523;-71
2023/02/04 16:58:25;;;;;;;1.20;1.05;;;;;;;;;;5072020;28;20052;-71
2023/02/04 17:00:55;;;;;;;0.93;0.65;;;;;;;;;;5074183;28;20527;-71
2023/02/04 17:03:24;;;;;;;0.30;0.30;;;;;;;;;;5068613;28;20048;-72
2023/02/04 17:05:53;;;;;;;1.27;0.93;;;;;;;;;;5074630;28;20048;-71
2023/02/04 17:08:22;;;;;;;0.82;0.80;;;;;;;;;;5066548;28;20055;-71
2023/02/04 17:13:38;;;;;;;0.95;0.55;;;;;;;;;;5067661;28;20048;-71
2023/02/04 17:16:07;;;;;;;0.98;0.77;;;;;;;;;;5049373;28;20488;-70
2023/02/04 17:18:36;;;;;;;0.68;0.68;;;;;;;;;;5053622;28;20045;-69
2023/02/04 17:21:05;;;;;;;0.85;0.73;;;;;;;;;;5048666;28;20073;-70
2023/02/04 17:23:34;;;;;;;0.63;0.63;;;;;;;;;;5045121;28;20051;-70
2023/02/04 17:26:03;;;;;;;0.50;0.50;;;;;;;;;;5056226;28;20114;-71
2023/02/04 17:28:31;;;;;;;0.30;0.30;;;;;;;;;;5047230;28;20114;-70
2023/02/04 17:31:01;;;;;;;1.10;0.88;;;;;;;;;;5051895;28;20059;-71
2023/02/04 17:33:31;;;;;;;0.88;0.88;;;;;;;;;;5050355;28;20048;-71
2023/02/04 17:36:00;;;;;;;0.60;0.57;;;;;;;;;;5051584;28;20057;-69
2023/02/04 17:38:29;;;;;;;0.93;0.85;;;;;;;;;;5048373;28;20068;-71
2023/02/04 17:40:59;;;;;;;1.58;0.50;;;;;;;;;;5048706;28;20049;-69
2023/02/04 17:43:28;;;;;;;0.30;0.30;;;;;;;;;;5042624;28;20091;-70
2023/02/04 17:45:57;;;;;;;0.30;0.30;;;;;;;;;;5049885;28;20148;-70
2023/02/04 17:48:27;;;;;;;0.40;0.40;;;;;;;;;;5048817;28;20045;-70
2023/02/04 17:50:56;;;;;;;0.85;0.82;;;;;;;;;;5048857;28;20049;-71
2023/02/04 17:53:25;;;;;;;1.02;0.47;;;;;;;;;;5054371;28;20211;-71
2023/02/04 17:55:53;;;;;;;2.10;0.77;;;;;;;;;;5058739;28;20135;-70
2023/02/04 17:58:22;;;;;;;1.60;0.93;;;;;;;;;;5048953;28;20049;-71
2023/02/04 18:00:51;;;;;;;0.77;0.60;;;;;;;;;;5048042;28;20487;-70
2023/02/04 18:03:22;;;;;;;1.95;1.23;;;;;;;;;;5049612;28;20044;-70
2023/02/04 18:05:53;;;;;;;2.13;1.02;;;;;;;;;;5055635;28;20144;-70
2023/02/04 18:08:23;;;;;;;0.75;0.50;;;;;;;;;;5046842;28;20055;-69
2023/02/04 18:10:52;;;;;;;0.65;0.40;;;;;;;;;;5049614;28;20049;-71
2023/02/04 18:13:23;;;;;;;0.43;0.43;;;;;;;;;;5041120;28;20050;-70
2023/02/04 18:15:52;;;;;;;0.47;0.47;;;;;;;;;;5070816;28;20508;-70
2023/02/04 18:18:22;;;;;;;0.82;0.60;;;;;;;;;;5068692;28;20142;-71
2023/02/04 18:21:03;;;;;;;0.93;0.77;;;;;;;;;;5074314;28;20122;-71
2023/02/04 18:23:33;;;;;;;1.45;0.82;;;;;;;;;;5067572;28;20076;-71
2023/02/04 18:26:06;;;;;;;1.15;0.70;;;;;;;;;;5070959;28;20520;-70
2023/02/04 18:28:38;;;;;;;1.23;0.85;;;;;;;;;;5066126;28;20048;-70
2023/02/04 18:31:21;;;;;;;1.48;1.33;;;;;;;;;;5066844;28;20040;-70
2023/02/04 18:33:50;;;;;;;3.42;2.00;;;;;;;;;;5066054;28;20052;-69